createdAt,value
2023-03-31T00:01:24.326Z,33.78
2023-03-31T00:04:04.969Z,35.90
2023-03-31T00:06:42.132Z,31.50
2023-03-31T00:09:14.161Z,25.65
2023-03-31T00:11:42.388Z,34.03
2023-03-31T00:14:10.826Z,31.42
2023-03-31T00:16:39.984Z,32.00
2023-03-31T00:19:10.417Z,31.88
2023-03-31T00:21:38.621Z,26.23
2023-03-31T00:24:07.911Z,27.73
2023-03-31T00:26:36.679Z,35.42
2023-03-31T00:29:10.628Z,26.27
2023-03-31T00:31:39.206Z,29.58
2023-03-31T00:34:08.015Z,28.98
2023-03-31T00:36:37.117Z,33.53
2023-03-31T00:39:09.568Z,24.65
2023-03-31T00:41:39.480Z,33.85
2023-03-31T00:44:23.035Z,32.40
2023-03-31T00:47:20.271Z,36.00
2023-03-31T00:49:54.813Z,42.65
2023-03-31T00:52:36.044Z,36.70
2023-03-31T00:55:18.805Z,35.93
2023-03-31T00:57:48.226Z,44.40
2023-03-31T01:00:18.506Z,32.03
2023-03-31T01:03:02.493Z,46.92
2023-03-31T01:05:45.946Z,37.03
2023-03-31T01:08:16.761Z,37.65
2023-03-31T01:10:51.288Z,44.77
2023-03-31T01:13:20.484Z,39.30
2023-03-31T01:15:48.732Z,38.63
2023-03-31T01:18:21.489Z,40.55
2023-03-31T01:21:23.542Z,49.88
2023-03-31T01:26:50.731Z,280.65
2023-03-31T01:30:08.437Z,114.38
2023-03-31T01:33:00.570Z,149.02
2023-03-31T01:36:24.399Z,87.57
2023-03-31T01:39:19.043Z,108.40
2023-03-31T01:42:02.748Z,42.83
2023-03-31T01:44:46.866Z,27.77
2023-03-31T01:47:40.969Z,27.05
2023-03-31T01:50:45.504Z,27.58
2023-03-31T01:53:35.604Z,23.02
2023-03-31T01:56:59.932Z,25.05
2023-03-31T01:59:56.068Z,25.30
2023-03-31T02:02:32.714Z,24.77
2023-03-31T02:05:10.364Z,24.75
2023-03-31T02:08:07.526Z,25.75
2023-03-31T02:10:37.075Z,28.20
2023-03-31T02:13:07.629Z,25.73
2023-03-31T02:15:39.887Z,28.73
2023-03-31T02:18:13.197Z,26.08
2023-03-31T02:20:44.452Z,31.00
2023-03-31T02:23:16.416Z,27.75
2023-03-31T02:25:55.953Z,25.73
2023-03-31T02:28:28.570Z,29.33
2023-03-31T02:31:36.716Z,35.08
2023-03-31T02:34:07.656Z,28.17
2023-03-31T02:36:36.958Z,37.90
2023-03-31T02:39:11.492Z,27.35
2023-03-31T02:41:39.580Z,32.75
2023-03-31T02:44:07.519Z,33.45
2023-03-31T02:46:35.762Z,38.17
2023-03-31T02:49:08.267Z,34.92
2023-03-31T02:54:45.142Z,36.05
2023-03-31T02:57:20.463Z,37.17
2023-03-31T03:00:23.170Z,39.05
2023-03-31T03:03:28.678Z,37.67
2023-03-31T03:06:19.223Z,42.08
2023-03-31T03:09:35.675Z,37.17
2023-03-31T03:12:50.397Z,33.55
2023-03-31T03:15:28.580Z,33.67
2023-03-31T03:17:58.263Z,38.38
2023-03-31T03:20:26.993Z,36.08
2023-03-31T03:22:55.079Z,44.20
2023-03-31T03:25:24.481Z,39.45
2023-03-31T03:27:53.274Z,38.13
2023-03-31T03:30:22.114Z,36.63
2023-03-31T03:32:50.687Z,38.92
2023-03-31T03:35:18.792Z,40.05
2023-03-31T03:37:46.805Z,39.25
2023-03-31T03:40:15.458Z,40.22
2023-03-31T03:42:43.409Z,36.55
2023-03-31T03:45:11.742Z,34.65
2023-03-31T03:47:39.682Z,37.80
2023-03-31T03:50:08.678Z,37.80
2023-03-31T03:52:36.876Z,35.92
2023-03-31T03:55:05.801Z,44.80
2023-03-31T03:57:33.725Z,39.00
2023-03-31T04:00:01.962Z,35.97
2023-03-31T04:02:40.328Z,44.03
2023-03-31T04:05:09.467Z,44.03
2023-03-31T04:07:37.842Z,43.80
2023-03-31T04:10:06.734Z,41.38
2023-03-31T04:12:36.616Z,46.20
2023-03-31T04:15:05.616Z,45.08
2023-03-31T04:17:34.981Z,46.40
2023-03-31T04:20:10.054Z,44.25
2023-03-31T04:22:41.789Z,49.25
2023-03-31T04:25:16.811Z,48.10
2023-03-31T04:27:54.858Z,45.88
2023-03-31T04:30:31.273Z,45.05
2023-03-31T04:33:02.918Z,39.22
2023-03-31T04:38:11.293Z,46.45
2023-03-31T04:40:40.094Z,41.22
2023-03-31T04:43:08.186Z,48.50
2023-03-31T04:45:36.650Z,42.28
2023-03-31T04:48:05.055Z,42.80
2023-03-31T04:50:34.795Z,43.38
2023-03-31T04:53:04.053Z,43.15
2023-03-31T04:55:32.517Z,51.17
2023-03-31T04:58:01.705Z,40.03
2023-03-31T05:00:30.120Z,40.60
2023-03-31T05:02:59.663Z,45.63
2023-03-31T05:05:28.235Z,40.50
2023-03-31T05:07:56.601Z,41.85
2023-03-31T05:10:24.974Z,41.38
2023-03-31T05:12:53.268Z,40.17
2023-03-31T05:15:21.822Z,41.28
2023-03-31T05:17:49.853Z,40.42
2023-03-31T05:20:18.173Z,41.53
2023-03-31T05:22:47.065Z,42.03
2023-03-31T05:25:18.775Z,36.80
2023-03-31T05:30:17.489Z,35.13
2023-03-31T05:32:45.733Z,37.05
2023-03-31T05:35:13.762Z,37.05
2023-03-31T05:37:41.788Z,36.88
2023-03-31T05:40:11.158Z,34.55
2023-03-31T05:42:39.462Z,34.67
2023-03-31T05:45:09.319Z,36.50
2023-03-31T05:47:38.277Z,30.40
2023-03-31T05:50:09.520Z,28.08
2023-03-31T05:52:38.120Z,33.95
2023-03-31T05:55:08.156Z,31.63
2023-03-31T05:57:36.704Z,34.42
2023-03-31T06:00:06.606Z,35.65
2023-03-31T06:02:34.859Z,35.47
2023-03-31T06:05:03.738Z,33.63
2023-03-31T06:07:31.729Z,40.22
2023-03-31T06:09:59.895Z,37.67
2023-03-31T06:12:28.165Z,40.42
2023-03-31T06:14:56.144Z,34.08
2023-03-31T06:17:24.436Z,34.80
2023-03-31T06:19:52.551Z,33.33
2023-03-31T06:22:21.463Z,25.23
2023-03-31T06:24:49.750Z,28.90
2023-03-31T06:27:17.802Z,29.77
2023-03-31T06:29:45.967Z,27.88
2023-03-31T06:32:14.443Z,26.27
2023-03-31T06:34:42.570Z,26.52
2023-03-31T06:37:10.731Z,24.20
2023-03-31T06:39:39.020Z,26.70
2023-03-31T06:42:07.563Z,24.67
2023-03-31T06:44:41.824Z,24.20
2023-03-31T06:47:10.071Z,23.98
2023-03-31T06:49:38.775Z,24.10
2023-03-31T06:52:06.972Z,23.88
2023-03-31T06:54:35.203Z,25.00
2023-03-31T06:57:03.268Z,24.73
2023-03-31T06:59:31.530Z,21.60
2023-03-31T07:01:59.936Z,24.35
2023-03-31T07:04:28.968Z,22.33
2023-03-31T07:06:59.957Z,23.05
2023-03-31T07:09:29.178Z,18.58
2023-03-31T07:11:57.225Z,27.15
2023-03-31T07:14:25.603Z,18.13
2023-03-31T07:16:53.986Z,30.42
2023-03-31T07:19:23.073Z,21.67
2023-03-31T07:21:51.726Z,22.83
2023-03-31T07:24:20.350Z,19.40
2023-03-31T07:26:48.834Z,17.42
2023-03-31T07:29:17.232Z,23.05
2023-03-31T07:31:48.645Z,17.80
2023-03-31T07:34:16.799Z,16.35
2023-03-31T07:36:45.308Z,15.18
2023-03-31T07:39:13.800Z,15.18
2023-03-31T07:41:42.581Z,16.75
2023-03-31T07:44:10.810Z,17.13
2023-03-31T07:46:39.914Z,14.73
2023-03-31T07:49:09.662Z,18.52
2023-03-31T07:51:38.177Z,17.48
2023-03-31T07:54:06.592Z,18.65
2023-03-31T07:56:34.658Z,15.77
2023-03-31T07:59:03.073Z,13.20
2023-03-31T08:01:31.363Z,17.25
2023-03-31T08:03:59.733Z,13.80
2023-03-31T08:06:29.183Z,14.45
2023-03-31T08:08:57.883Z,15.15
2023-03-31T08:11:26.754Z,14.13
2023-03-31T08:13:54.638Z,16.60
2023-03-31T08:16:23.119Z,12.98
2023-03-31T08:18:51.128Z,12.80
2023-03-31T08:21:19.340Z,16.98
2023-03-31T08:23:49.085Z,16.25
2023-03-31T08:26:18.517Z,12.50
2023-03-31T08:28:49.256Z,14.98
2023-03-31T08:31:20.648Z,16.43
2023-03-31T08:33:48.779Z,17.63
2023-03-31T08:36:17.739Z,16.13
2023-03-31T08:38:49.950Z,13.82
2023-03-31T08:41:48.187Z,14.20
2023-03-31T08:44:32.273Z,15.52
2023-03-31T08:47:03.120Z,11.15
2023-03-31T08:49:44.252Z,12.38
2023-03-31T08:52:56.462Z,14.18
2023-03-31T08:58:53.436Z,13.43
2023-03-31T09:01:56.266Z,11.30
2023-03-31T09:04:33.869Z,16.23
2023-03-31T09:07:56.482Z,15.45
2023-03-31T09:11:24.046Z,14.68
2023-03-31T09:14:59.444Z,16.45
2023-03-31T09:17:35.502Z,15.13
2023-03-31T09:20:39.300Z,15.63
2023-03-31T09:23:57.656Z,16.23
2023-03-31T09:26:50.884Z,13.60
2023-03-31T09:29:47.922Z,14.07
2023-03-31T09:32:30.894Z,16.23
2023-03-31T09:35:25.890Z,13.85
2023-03-31T09:37:55.588Z,11.93
2023-03-31T09:40:27.422Z,13.23
2023-03-31T09:43:16.109Z,14.38
2023-03-31T09:45:57.627Z,14.35
2023-03-31T09:48:38.043Z,15.05
2023-03-31T09:51:23.784Z,16.63
2023-03-31T09:54:04.155Z,17.13
2023-03-31T09:56:55.636Z,16.98
2023-03-31T09:59:35.562Z,13.23
2023-03-31T10:02:26.735Z,14.05
2023-03-31T10:04:55.706Z,20.95
2023-03-31T10:07:25.202Z,17.63
2023-03-31T10:09:55.729Z,20.00
2023-03-31T10:12:30.256Z,13.88
2023-03-31T10:15:26.560Z,12.88
2023-03-31T10:17:58.519Z,14.77
2023-03-31T10:20:39.066Z,15.65
2023-03-31T10:23:35.982Z,13.45
2023-03-31T10:26:05.085Z,16.50
2023-03-31T10:28:36.668Z,14.23
2023-03-31T10:33:38.717Z,16.27
2023-03-31T10:36:23.674Z,17.63
2023-03-31T10:38:54.508Z,15.35
2023-03-31T10:41:30.080Z,14.70
2023-03-31T10:44:02.720Z,16.13
2023-03-31T10:46:49.200Z,16.52
2023-03-31T10:49:27.571Z,12.98
2023-03-31T10:51:59.258Z,13.75
2023-03-31T10:54:27.906Z,13.60
2023-03-31T10:57:01.787Z,17.90
2023-03-31T11:00:12.533Z,14.63
2023-03-31T11:03:05.311Z,17.40
2023-03-31T11:06:26.065Z,19.92
2023-03-31T11:09:30.792Z,20.65
2023-03-31T11:12:24.913Z,17.33
2023-03-31T11:15:39.048Z,18.40
2023-03-31T11:18:41.855Z,14.60
2023-03-31T11:21:46.424Z,20.33
2023-03-31T11:24:43.616Z,19.25
2023-03-31T11:27:17.616Z,22.73
2023-03-31T11:29:57.957Z,25.95
2023-03-31T11:33:21.374Z,23.27
2023-03-31T11:36:19.187Z,38.90
2023-03-31T11:39:26.577Z,38.80
2023-03-31T11:42:05.442Z,37.78
2023-03-31T11:44:46.198Z,31.95
2023-03-31T11:47:19.824Z,31.77
2023-03-31T11:50:24.669Z,47.25
2023-03-31T11:53:03.322Z,44.47
2023-03-31T11:55:33.334Z,41.58
2023-03-31T11:58:03.240Z,48.28
2023-03-31T12:01:03.145Z,44.55
2023-03-31T12:03:56.502Z,55.45
2023-03-31T12:06:34.131Z,51.85
2023-03-31T12:09:37.069Z,38.22
2023-03-31T12:12:20.292Z,46.47
2023-03-31T12:15:06.694Z,69.38
2023-03-31T12:17:38.197Z,53.33
2023-03-31T12:20:21.601Z,52.53
2023-03-31T12:22:50.818Z,60.92
2023-03-31T12:25:26.236Z,46.50
2023-03-31T12:27:55.227Z,53.92
2023-03-31T12:30:43.243Z,35.22
2023-03-31T12:33:33.774Z,35.65
2023-03-31T12:36:23.520Z,41.97
2023-03-31T12:39:19.755Z,65.72
2023-03-31T12:42:05.616Z,48.47
2023-03-31T12:45:00.655Z,51.25
2023-03-31T12:47:34.649Z,37.60
2023-03-31T12:50:24.175Z,34.40
2023-03-31T12:53:26.608Z,86.45
2023-03-31T12:55:59.122Z,251.75
2023-03-31T12:58:33.253Z,387.48
2023-03-31T13:01:24.487Z,373.90
2023-03-31T13:04:10.324Z,411.90
2023-03-31T13:06:38.760Z,168.80
2023-03-31T13:09:33.888Z,373.05
2023-03-31T13:12:13.708Z,378.15
2023-03-31T13:14:46.434Z,394.65
2023-03-31T13:19:38.006Z,374.05
2023-03-31T13:22:07.481Z,372.13
2023-03-31T13:24:35.690Z,366.88
2023-03-31T13:27:35.559Z,366.10
2023-03-31T13:30:06.264Z,363.80
2023-03-31T13:32:34.705Z,330.80
2023-03-31T13:35:24.272Z,372.00
2023-03-31T13:38:40.786Z,354.00
2023-03-31T13:41:23.607Z,322.02
2023-03-31T13:44:10.745Z,327.87
2023-03-31T13:46:46.053Z,301.17
2023-03-31T15:44:42.046Z,5.65
2023-03-31T15:47:31.988Z,4.30
2023-03-31T15:50:13.117Z,4.45
2023-03-31T15:52:53.538Z,11.73
2023-03-31T16:04:42.479Z,14.02
2023-03-31T16:07:22.204Z,11.98
2023-03-31T16:09:53.645Z,17.00
2023-03-31T16:15:11.108Z,11.73
2023-03-31T16:19:26.351Z,20.38
2023-03-31T16:27:06.730Z,13.35
2023-03-31T16:30:42.492Z,19.80
2023-03-31T16:33:26.158Z,14.63
2023-03-31T16:35:56.466Z,19.98
2023-03-31T16:44:11.832Z,19.13
2023-03-31T16:46:40.111Z,17.30
2023-03-31T17:00:28.761Z,294.13
2023-03-31T17:02:58.100Z,98.03
2023-03-31T17:07:32.080Z,407.40
2023-03-31T17:12:28.552Z,409.70
2023-03-31T17:15:38.222Z,377.48
2023-03-31T17:39:17.003Z,35.72
2023-03-31T17:41:45.267Z,34.97
2023-03-31T17:44:13.008Z,27.77
2023-03-31T17:47:49.620Z,47.78
2023-03-31T17:54:13.734Z,278.60
2023-03-31T17:56:42.250Z,84.65
2023-03-31T18:00:09.426Z,61.63
2023-03-31T18:06:25.324Z,101.40
2023-03-31T18:10:53.182Z,352.17
2023-03-31T18:11:08.703Z,381.15
2023-03-31T18:11:22.239Z,396.67
2023-03-31T18:11:35.638Z,404.20
2023-03-31T18:11:48.815Z,396.15
2023-03-31T18:12:02.902Z,353.13
2023-03-31T18:12:16.543Z,299.25
2023-03-31T18:12:30.070Z,234.50
2023-03-31T18:12:46.042Z,173.00
2023-03-31T18:12:59.981Z,122.43
2023-03-31T18:13:13.664Z,94.22
2023-03-31T18:13:27.524Z,91.40
2023-03-31T18:13:41.768Z,102.18
2023-03-31T18:13:55.889Z,107.18
2023-03-31T18:14:09.293Z,102.03
2023-03-31T18:14:22.647Z,85.05
2023-03-31T18:14:35.661Z,83.88
2023-03-31T18:14:48.843Z,79.20
2023-03-31T18:19:49.902Z,295.02
2023-03-31T18:20:03.800Z,362.80
2023-03-31T18:20:18.439Z,385.80
2023-03-31T18:20:32.747Z,382.70
2023-03-31T18:20:46.774Z,368.63
2023-03-31T18:21:04.806Z,352.67
2023-03-31T18:21:18.365Z,340.83
2023-03-31T18:21:32.268Z,350.15
2023-03-31T18:21:45.566Z,358.30
2023-03-31T18:21:59.152Z,357.33
2023-03-31T18:22:12.571Z,358.42
2023-03-31T18:22:26.286Z,359.45
2023-03-31T18:22:39.841Z,359.15
2023-03-31T18:22:53.148Z,359.90
2023-03-31T18:23:06.652Z,353.73
2023-03-31T18:23:19.894Z,365.17
2023-03-31T18:23:34.602Z,376.27
2023-03-31T18:27:05.802Z,334.88
2023-03-31T18:27:19.400Z,371.13
2023-03-31T18:27:33.110Z,362.65
2023-03-31T18:27:47.544Z,327.35
2023-03-31T18:28:00.822Z,317.83
2023-03-31T18:28:16.246Z,353.75
2023-03-31T18:28:29.568Z,386.98
2023-03-31T18:28:43.289Z,398.63
2023-03-31T18:28:56.635Z,421.90
2023-03-31T18:29:10.066Z,406.10
2023-03-31T18:29:23.326Z,394.08
2023-03-31T18:29:36.847Z,421.27
2023-03-31T18:29:50.604Z,430.17
2023-03-31T18:30:06.261Z,426.50
2023-03-31T18:30:19.403Z,429.90
2023-03-31T18:30:32.733Z,437.67
2023-03-31T18:30:47.455Z,419.92
2023-03-31T18:31:05.720Z,255.18
2023-03-31T18:31:21.477Z,84.22
2023-03-31T18:31:35.146Z,83.10
2023-03-31T18:31:48.633Z,80.47
2023-03-31T18:32:02.022Z,79.25
2023-03-31T18:32:16.719Z,79.80
2023-03-31T18:32:30.188Z,89.25
2023-03-31T18:32:43.917Z,165.43
2023-03-31T18:32:58.646Z,247.25
2023-03-31T18:33:13.127Z,178.77
2023-03-31T18:33:27.373Z,73.80
2023-03-31T18:33:41.145Z,68.43
2023-03-31T18:43:37.797Z,346.75
2023-03-31T18:43:52.509Z,407.85
2023-03-31T18:44:06.129Z,425.08
2023-03-31T18:44:19.785Z,413.02
2023-03-31T18:44:33.468Z,405.77
2023-03-31T18:44:46.915Z,441.70
2023-03-31T18:44:59.904Z,447.05
2023-03-31T18:45:16.057Z,424.80
2023-03-31T18:45:30.842Z,413.88
2023-03-31T18:45:54.601Z,416.50
2023-03-31T18:46:08.872Z,403.42
2023-03-31T18:46:22.139Z,409.20
2023-03-31T18:46:39.098Z,419.88
2023-03-31T18:46:52.795Z,432.88
2023-03-31T18:47:07.045Z,417.20
2023-03-31T18:47:22.201Z,388.98
2023-03-31T18:47:38.906Z,402.45
2023-03-31T18:47:52.049Z,370.90
2023-03-31T18:48:05.233Z,365.20
2023-03-31T18:48:19.363Z,385.15
2023-03-31T18:48:32.495Z,420.65
2023-03-31T18:48:46.422Z,425.75
2023-03-31T18:48:59.829Z,406.65
2023-03-31T18:49:14.087Z,389.38
2023-03-31T18:49:27.267Z,377.23
2023-03-31T18:49:40.231Z,334.00
2023-03-31T18:52:18.161Z,73.80
2023-03-31T18:54:46.873Z,112.93
2023-03-31T18:57:17.096Z,61.25
2023-03-31T18:59:45.284Z,72.45
2023-03-31T19:02:19.163Z,68.57
2023-03-31T19:04:48.629Z,73.40
2023-03-31T19:07:17.692Z,77.70
2023-03-31T19:09:46.170Z,75.72
2023-03-31T19:12:14.522Z,71.90
2023-03-31T19:14:43.346Z,79.05
2023-03-31T19:19:42.285Z,75.65
2023-03-31T19:22:11.016Z,82.47
2023-03-31T19:24:40.396Z,89.50
2023-03-31T19:27:11.054Z,82.45
2023-03-31T19:29:39.601Z,66.20
2023-03-31T19:32:08.180Z,60.85
2023-03-31T19:34:36.673Z,63.00
2023-03-31T19:37:05.168Z,72.70
2023-03-31T19:39:34.232Z,69.00
2023-03-31T19:42:03.823Z,65.15
2023-03-31T19:44:31.846Z,71.97
2023-03-31T19:47:00.556Z,77.97
2023-03-31T19:49:29.226Z,60.58
2023-03-31T19:51:57.257Z,70.45
2023-03-31T19:54:25.377Z,61.90
2023-03-31T19:56:53.624Z,83.03
2023-03-31T19:59:21.961Z,44.72
2023-03-31T20:01:50.170Z,86.07
2023-03-31T20:04:18.463Z,48.70
2023-03-31T20:06:48.454Z,92.03
2023-03-31T20:09:17.633Z,59.70
2023-03-31T20:11:46.145Z,61.42
2023-03-31T20:14:15.491Z,69.68
2023-03-31T20:16:44.897Z,76.97
2023-03-31T20:19:13.301Z,63.38
2023-03-31T20:21:43.865Z,70.20
2023-03-31T20:24:18.978Z,75.47
2023-03-31T20:26:47.640Z,97.35
2023-03-31T20:29:16.334Z,81.15
2023-03-31T20:31:45.044Z,90.53
2023-03-31T20:34:18.684Z,78.75
2023-03-31T20:36:49.522Z,82.70
2023-03-31T20:39:18.574Z,81.43
2023-03-31T20:41:47.523Z,83.43
2023-03-31T20:44:16.090Z,71.22
2023-03-31T20:46:45.097Z,75.68
2023-03-31T20:49:13.538Z,68.63
2023-03-31T20:51:44.479Z,73.03
2023-03-31T20:54:12.751Z,73.88
2023-03-31T20:56:42.374Z,79.13
2023-03-31T20:59:15.575Z,60.67
2023-03-31T21:01:47.474Z,75.88
2023-03-31T21:04:17.294Z,63.78
2023-03-31T21:06:47.851Z,76.57
2023-03-31T21:09:17.282Z,58.40
2023-03-31T21:11:45.916Z,76.82
2023-03-31T21:14:16.931Z,63.20
2023-03-31T21:16:46.690Z,80.78
2023-03-31T21:19:14.947Z,57.80
2023-03-31T21:21:43.385Z,72.85
2023-03-31T21:24:13.386Z,58.80
2023-03-31T21:26:41.829Z,65.88
2023-03-31T21:29:09.889Z,58.65
2023-03-31T21:31:38.515Z,60.90
2023-03-31T21:34:06.597Z,69.63
2023-03-31T21:36:35.031Z,67.70
2023-03-31T21:39:03.641Z,54.72
2023-03-31T21:41:32.519Z,66.53
2023-03-31T21:44:02.791Z,61.95
2023-03-31T21:46:33.769Z,67.82
2023-03-31T21:49:02.862Z,63.30
2023-03-31T21:51:31.949Z,54.65
2023-03-31T21:54:00.271Z,54.58
2023-03-31T21:56:32.023Z,63.60
2023-03-31T21:59:02.575Z,62.33
2023-03-31T22:01:31.532Z,51.55
2023-03-31T22:04:00.811Z,54.70
2023-03-31T22:06:29.688Z,54.92
2023-03-31T22:08:57.813Z,70.13
2023-03-31T22:11:27.545Z,60.03
2023-03-31T22:13:57.082Z,69.10
2023-03-31T22:16:25.183Z,59.05
2023-03-31T22:18:55.222Z,65.85
2023-03-31T22:21:26.987Z,68.00
2023-03-31T22:23:59.015Z,69.10
2023-03-31T22:26:31.397Z,46.90
2023-03-31T22:29:00.099Z,56.90
2023-03-31T22:31:28.759Z,54.35
2023-03-31T22:33:57.022Z,68.57
2023-03-31T22:36:25.091Z,50.60
2023-03-31T22:38:53.557Z,65.13
2023-03-31T22:41:22.422Z,61.20
2023-03-31T22:43:51.677Z,67.07
2023-03-31T22:46:20.082Z,60.50
2023-03-31T22:48:51.232Z,67.03
2023-03-31T22:51:19.266Z,55.63
2023-03-31T22:53:55.159Z,74.32
2023-03-31T22:56:25.280Z,61.67
2023-03-31T22:58:56.873Z,67.80
2023-03-31T23:01:25.553Z,67.68
2023-03-31T23:03:53.556Z,65.93
2023-03-31T23:06:22.069Z,60.53
2023-03-31T23:08:50.945Z,65.40
2023-03-31T23:11:19.336Z,57.03
2023-03-31T23:13:47.997Z,63.85
2023-03-31T23:16:25.754Z,63.13
2023-03-31T23:18:56.113Z,61.83
2023-03-31T23:21:28.217Z,45.88
2023-03-31T23:24:05.515Z,68.50
2023-03-31T23:26:34.385Z,64.82
2023-03-31T23:29:02.718Z,62.40
2023-03-31T23:31:33.101Z,67.60
2023-03-31T23:34:01.742Z,61.80
2023-03-31T23:36:31.077Z,62.80
2023-03-31T23:38:59.059Z,64.30
2023-03-31T23:41:27.945Z,61.55
2023-03-31T23:43:57.908Z,72.25
2023-03-31T23:46:26.811Z,55.20
2023-03-31T23:48:55.911Z,64.07
2023-03-31T23:51:24.450Z,49.30
2023-03-31T23:53:53.171Z,83.45
2023-03-31T23:56:21.765Z,57.63
2023-03-31T23:58:50.070Z,73.03
